Kezdőlap
METAR-TAF:

METAR-TAF

Repülőterek :

Eliszta, Oroszország

földrajzi szélesség: 46-22N, földrajzi hosszúság: 044-20E, magasság: 150 m

Jelenlegi meteorológiai megfigyelések

A jelentés 37 perccel ezelõtt készült, 22:30 UTC
Nyugat-délnyugati szél 10 kt
Hőmérséklet 15°C
Páratartalom 67%
Légköri nyomás 1016 hPa
Látótávolság 10 km, vagy több

METAR: URWI 242230Z AUTO 25005MPS 9999 // NCD 15/09 Q1016

Idő: 03:07 (23:07 UTC)

Előrejelzés

A jelentés 9 órával és 7 perccel ezelõtt készült, 14:00 UTC
Az előrejelzés 24-én 15 óra UTC és 24-én 24 óra UTC között érvényes
Nyugat-délnyugati szél 6 kt széllökések: 19 kt
Látótávolság 10 km, vagy több
Szórványos felhőzet 3000 lábon

TAF: URWI 241400Z 2415/2424 25003G10MPS 9999 SCT030

Meteorológiai megfigyelések és előrejelzések több, mint 4000 repülőtéren (METAR és TAF jelentéseket).

A térképen piros és sárga pontok jelzik az elérhető meteorológiai állomásokat.

Mozgassa az egeret a pont fölött, hogy megjelenjen az állomás neve.

Azután kattintson az időjárási megfigyelések és előrejelzések megtekintéséhez.

A térkép megváltoztatása: kattintson a fekete keresztel jelölt zöld gombra ráközelítéshez, a vonallal jelölt zöld gombra távolításhoz, vagy a zöld nyilakra a szomszédos térképek eléréséhez.


METAR-TAF: